sensor_id;sensor_type;location;lat;lon;timestamp;P1;durP1;ratioP1;P2;durP2;ratioP2
3101;SDS011;1561;42.666;23.392;2023-04-24T00:01:01;11.53;;;7.93;;
3101;SDS011;1561;42.666;23.392;2023-04-24T00:03:29;8.57;;;7.67;;
3101;SDS011;1561;42.666;23.392;2023-04-24T00:05:58;7.63;;;6.90;;
3101;SDS011;1561;42.666;23.392;2023-04-24T00:11:28;7.87;;;7.07;;
3101;SDS011;1561;42.666;23.392;2023-04-24T00:13:55;7.63;;;6.50;;
3101;SDS011;1561;42.666;23.392;2023-04-24T00:16:24;7.40;;;6.70;;
3101;SDS011;1561;42.666;23.392;2023-04-24T00:18:51;8.87;;;7.73;;
3101;SDS011;1561;42.666;23.392;2023-04-24T00:21:21;8.57;;;7.00;;
3101;SDS011;1561;42.666;23.392;2023-04-24T00:23:51;8.17;;;7.33;;
3101;SDS011;1561;42.666;23.392;2023-04-24T00:29:22;10.20;;;7.70;;
3101;SDS011;1561;42.666;23.392;2023-04-24T00:31:51;11.47;;;8.20;;
3101;SDS011;1561;42.666;23.392;2023-04-24T00:34:19;9.03;;;7.80;;
3101;SDS011;1561;42.666;23.392;2023-04-24T00:36:46;10.53;;;8.07;;
3101;SDS011;1561;42.666;23.392;2023-04-24T00:39:17;10.00;;;8.70;;
3101;SDS011;1561;42.666;23.392;2023-04-24T00:41:45;10.30;;;8.43;;
3101;SDS011;1561;42.666;23.392;2023-04-24T00:47:15;10.33;;;8.67;;
3101;SDS011;1561;42.666;23.392;2023-04-24T00:52:46;8.70;;;7.80;;
3101;SDS011;1561;42.666;23.392;2023-04-24T00:58:19;8.50;;;7.30;;
3101;SDS011;1561;42.666;23.392;2023-04-24T01:00:47;8.47;;;7.57;;
3101;SDS011;1561;42.666;23.392;2023-04-24T01:03:15;10.20;;;7.60;;
3101;SDS011;1561;42.666;23.392;2023-04-24T01:17:55;10.37;;;7.80;;
3101;SDS011;1561;42.666;23.392;2023-04-24T01:20:21;7.37;;;6.70;;
3101;SDS011;1561;42.666;23.392;2023-04-24T01:22:51;14.40;;;8.03;;
3101;SDS011;1561;42.666;23.392;2023-04-24T01:31:23;8.70;;;7.10;;
3101;SDS011;1561;42.666;23.392;2023-04-24T01:36:56;9.30;;;7.73;;
3101;SDS011;1561;42.666;23.392;2023-04-24T01:39:28;9.40;;;8.27;;
3101;SDS011;1561;42.666;23.392;2023-04-24T01:41:55;12.03;;;8.73;;
3101;SDS011;1561;42.666;23.392;2023-04-24T01:44:22;11.10;;;8.10;;
3101;SDS011;1561;42.666;23.392;2023-04-24T01:46:49;14.20;;;9.70;;
3101;SDS011;1561;42.666;23.392;2023-04-24T01:52:18;12.40;;;9.40;;
3101;SDS011;1561;42.666;23.392;2023-04-24T01:54:51;11.63;;;9.30;;
3101;SDS011;1561;42.666;23.392;2023-04-24T01:57:18;13.40;;;8.63;;
3101;SDS011;1561;42.666;23.392;2023-04-24T01:59:45;11.40;;;9.70;;
3101;SDS011;1561;42.666;23.392;2023-04-24T02:02:21;14.53;;;10.20;;
3101;SDS011;1561;42.666;23.392;2023-04-24T02:07:51;12.00;;;9.73;;
3101;SDS011;1561;42.666;23.392;2023-04-24T02:10:22;14.23;;;10.90;;
3101;SDS011;1561;42.666;23.392;2023-04-24T02:12:50;13.13;;;11.17;;
3101;SDS011;1561;42.666;23.392;2023-04-24T02:18:20;13.70;;;10.07;;
3101;SDS011;1561;42.666;23.392;2023-04-24T02:20:48;14.20;;;9.83;;
3101;SDS011;1561;42.666;23.392;2023-04-24T02:26:19;10.83;;;9.73;;
3101;SDS011;1561;42.666;23.392;2023-04-24T02:28:49;13.77;;;10.60;;
3101;SDS011;1561;42.666;23.392;2023-04-24T02:31:15;12.37;;;9.50;;
3101;SDS011;1561;42.666;23.392;2023-04-24T02:36:45;10.10;;;9.07;;
3101;SDS011;1561;42.666;23.392;2023-04-24T02:39:37;17.53;;;10.07;;
3101;SDS011;1561;42.666;23.392;2023-04-24T02:45:10;13.53;;;10.03;;
3101;SDS011;1561;42.666;23.392;2023-04-24T02:47:38;12.70;;;9.70;;
3101;SDS011;1561;42.666;23.392;2023-04-24T02:50:07;10.83;;;9.73;;
3101;SDS011;1561;42.666;23.392;2023-04-24T02:55:37;11.77;;;9.40;;
3101;SDS011;1561;42.666;23.392;2023-04-24T03:10:16;15.90;;;9.90;;
3101;SDS011;1561;42.666;23.392;2023-04-24T03:12:43;10.87;;;8.80;;
3101;SDS011;1561;42.666;23.392;2023-04-24T03:15:17;11.50;;;9.67;;
3101;SDS011;1561;42.666;23.392;2023-04-24T03:20:46;10.70;;;9.60;;
3101;SDS011;1561;42.666;23.392;2023-04-24T03:26:18;10.50;;;9.03;;
3101;SDS011;1561;42.666;23.392;2023-04-24T03:28:45;11.37;;;9.10;;
3101;SDS011;1561;42.666;23.392;2023-04-24T03:34:14;11.00;;;9.20;;
3101;SDS011;1561;42.666;23.392;2023-04-24T03:36:41;9.67;;;8.67;;
3101;SDS011;1561;42.666;23.392;2023-04-24T03:39:08;10.57;;;9.40;;
3101;SDS011;1561;42.666;23.392;2023-04-24T03:47:52;10.53;;;7.90;;
3101;SDS011;1561;42.666;23.392;2023-04-24T03:50:19;9.80;;;7.87;;
3101;SDS011;1561;42.666;23.392;2023-04-24T03:55:48;10.50;;;8.73;;
3101;SDS011;1561;42.666;23.392;2023-04-24T03:58:18;9.53;;;7.70;;
3101;SDS011;1561;42.666;23.392;2023-04-24T04:00:44;9.80;;;7.50;;
3101;SDS011;1561;42.666;23.392;2023-04-24T04:03:20;8.23;;;7.43;;
3101;SDS011;1561;42.666;23.392;2023-04-24T04:12:21;12.30;;;8.60;;
3101;SDS011;1561;42.666;23.392;2023-04-24T04:23:45;8.40;;;7.50;;
3101;SDS011;1561;42.666;23.392;2023-04-24T04:26:12;11.60;;;6.70;;
3101;SDS011;1561;42.666;23.392;2023-04-24T04:31:39;8.30;;;7.50;;
3101;SDS011;1561;42.666;23.392;2023-04-24T04:34:06;10.33;;;7.80;;
3101;SDS011;1561;42.666;23.392;2023-04-24T04:48:53;9.47;;;8.10;;
3101;SDS011;1561;42.666;23.392;2023-04-24T04:51:21;12.00;;;8.37;;
3101;SDS011;1561;42.666;23.392;2023-04-24T04:53:50;12.20;;;8.40;;
3101;SDS011;1561;42.666;23.392;2023-04-24T05:02:31;8.13;;;7.33;;
3101;SDS011;1561;42.666;23.392;2023-04-24T05:14:03;11.20;;;7.93;;
3101;SDS011;1561;42.666;23.392;2023-04-24T05:16:33;10.80;;;8.90;;
3101;SDS011;1561;42.666;23.392;2023-04-24T05:19:09;11.40;;;9.30;;
3101;SDS011;1561;42.666;23.392;2023-04-24T05:21:37;11.50;;;9.23;;
3101;SDS011;1561;42.666;23.392;2023-04-24T05:24:05;17.30;;;9.10;;
3101;SDS011;1561;42.666;23.392;2023-04-24T05:26:33;9.87;;;8.70;;
3101;SDS011;1561;42.666;23.392;2023-04-24T05:29:03;10.80;;;9.37;;
3101;SDS011;1561;42.666;23.392;2023-04-24T05:31:31;11.40;;;8.80;;
3101;SDS011;1561;42.666;23.392;2023-04-24T05:33:58;13.43;;;9.70;;
3101;SDS011;1561;42.666;23.392;2023-04-24T05:36:26;11.67;;;8.80;;
3101;SDS011;1561;42.666;23.392;2023-04-24T05:38:53;11.20;;;10.00;;
3101;SDS011;1561;42.666;23.392;2023-04-24T05:41:22;12.23;;;10.43;;
3101;SDS011;1561;42.666;23.392;2023-04-24T05:43:53;11.00;;;9.60;;
3101;SDS011;1561;42.666;23.392;2023-04-24T05:46:23;13.00;;;10.80;;
3101;SDS011;1561;42.666;23.392;2023-04-24T05:48:51;12.00;;;10.17;;
3101;SDS011;1561;42.666;23.392;2023-04-24T05:51:19;11.63;;;10.37;;
3101;SDS011;1561;42.666;23.392;2023-04-24T05:53:45;15.83;;;11.37;;
3101;SDS011;1561;42.666;23.392;2023-04-24T05:56:12;13.53;;;10.73;;
3101;SDS011;1561;42.666;23.392;2023-04-24T05:58:39;17.77;;;10.73;;
3101;SDS011;1561;42.666;23.392;2023-04-24T06:01:06;11.17;;;10.13;;
3101;SDS011;1561;42.666;23.392;2023-04-24T06:03:34;14.53;;;10.77;;
3101;SDS011;1561;42.666;23.392;2023-04-24T06:06:01;14.70;;;10.37;;
3101;SDS011;1561;42.666;23.392;2023-04-24T06:08:29;13.67;;;11.07;;
3101;SDS011;1561;42.666;23.392;2023-04-24T06:10:57;15.77;;;11.70;;
3101;SDS011;1561;42.666;23.392;2023-04-24T06:13:24;14.83;;;10.87;;
3101;SDS011;1561;42.666;23.392;2023-04-24T06:15:52;13.23;;;10.93;;
3101;SDS011;1561;42.666;23.392;2023-04-24T06:18:19;11.32;;;10.13;;
3101;SDS011;1561;42.666;23.392;2023-04-24T06:20:50;15.97;;;11.17;;
3101;SDS011;1561;42.666;23.392;2023-04-24T06:23:20;11.25;;;10.18;;
3101;SDS011;1561;42.666;23.392;2023-04-24T06:25:48;12.68;;;10.70;;
3101;SDS011;1561;42.666;23.392;2023-04-24T06:28:18;11.68;;;10.57;;
3101;SDS011;1561;42.666;23.392;2023-04-24T06:30:45;14.43;;;11.35;;
3101;SDS011;1561;42.666;23.392;2023-04-24T06:33:15;12.40;;;11.20;;
3101;SDS011;1561;42.666;23.392;2023-04-24T06:35:42;12.73;;;10.85;;
3101;SDS011;1561;42.666;23.392;2023-04-24T06:38:10;14.02;;;11.90;;
3101;SDS011;1561;42.666;23.392;2023-04-24T06:40:37;13.48;;;12.18;;
3101;SDS011;1561;42.666;23.392;2023-04-24T06:43:04;14.32;;;12.75;;
3101;SDS011;1561;42.666;23.392;2023-04-24T06:45:32;12.63;;;11.35;;
3101;SDS011;1561;42.666;23.392;2023-04-24T06:48:02;13.40;;;11.80;;
3101;SDS011;1561;42.666;23.392;2023-04-24T06:50:28;15.18;;;12.73;;
3101;SDS011;1561;42.666;23.392;2023-04-24T06:52:55;17.98;;;12.02;;
3101;SDS011;1561;42.666;23.392;2023-04-24T06:55:23;13.43;;;11.60;;
3101;SDS011;1561;42.666;23.392;2023-04-24T06:57:50;12.68;;;11.48;;
3101;SDS011;1561;42.666;23.392;2023-04-24T07:00:17;16.50;;;11.30;;
3101;SDS011;1561;42.666;23.392;2023-04-24T07:02:44;11.90;;;10.55;;
3101;SDS011;1561;42.666;23.392;2023-04-24T07:05:11;13.23;;;11.05;;
3101;SDS011;1561;42.666;23.392;2023-04-24T07:07:40;12.65;;;10.85;;
3101;SDS011;1561;42.666;23.392;2023-04-24T07:10:08;18.30;;;13.20;;
3101;SDS011;1561;42.666;23.392;2023-04-24T07:12:37;11.90;;;10.80;;
3101;SDS011;1561;42.666;23.392;2023-04-24T07:15:05;11.75;;;10.50;;
3101;SDS011;1561;42.666;23.392;2023-04-24T07:17:33;12.77;;;11.57;;
3101;SDS011;1561;42.666;23.392;2023-04-24T07:20:04;15.20;;;11.20;;
3101;SDS011;1561;42.666;23.392;2023-04-24T07:22:32;12.73;;;11.10;;
3101;SDS011;1561;42.666;23.392;2023-04-24T07:25:02;14.15;;;11.07;;
3101;SDS011;1561;42.666;23.392;2023-04-24T07:27:29;15.02;;;10.65;;
3101;SDS011;1561;42.666;23.392;2023-04-24T07:29:58;11.20;;;10.18;;
3101;SDS011;1561;42.666;23.392;2023-04-24T07:32:24;13.70;;;10.20;;
3101;SDS011;1561;42.666;23.392;2023-04-24T07:34:53;11.48;;;10.00;;
3101;SDS011;1561;42.666;23.392;2023-04-24T07:37:26;10.55;;;9.50;;
3101;SDS011;1561;42.666;23.392;2023-04-24T07:39:54;10.77;;;9.70;;
3101;SDS011;1561;42.666;23.392;2023-04-24T07:42:21;11.50;;;9.15;;
3101;SDS011;1561;42.666;23.392;2023-04-24T07:44:48;11.43;;;9.80;;
3101;SDS011;1561;42.666;23.392;2023-04-24T07:47:18;10.43;;;9.25;;
3101;SDS011;1561;42.666;23.392;2023-04-24T07:49:54;9.88;;;8.90;;
3101;SDS011;1561;42.666;23.392;2023-04-24T07:52:27;11.90;;;9.82;;
3101;SDS011;1561;42.666;23.392;2023-04-24T07:54:54;12.13;;;10.07;;
3101;SDS011;1561;42.666;23.392;2023-04-24T07:57:33;11.43;;;10.20;;
3101;SDS011;1561;42.666;23.392;2023-04-24T08:00:04;13.07;;;10.98;;
3101;SDS011;1561;42.666;23.392;2023-04-24T08:05:08;12.88;;;10.55;;
3101;SDS011;1561;42.666;23.392;2023-04-24T08:07:36;11.68;;;10.30;;
3101;SDS011;1561;42.666;23.392;2023-04-24T08:10:06;13.05;;;10.00;;
3101;SDS011;1561;42.666;23.392;2023-04-24T08:12:36;10.60;;;9.52;;
3101;SDS011;1561;42.666;23.392;2023-04-24T08:15:13;10.50;;;9.30;;
3101;SDS011;1561;42.666;23.392;2023-04-24T08:17:43;9.73;;;8.82;;
3101;SDS011;1561;42.666;23.392;2023-04-24T08:20:14;11.80;;;8.63;;
3101;SDS011;1561;42.666;23.392;2023-04-24T08:22:41;14.82;;;9.25;;
3101;SDS011;1561;42.666;23.392;2023-04-24T08:25:09;34.58;;;20.65;;
3101;SDS011;1561;42.666;23.392;2023-04-24T08:27:39;9.55;;;8.55;;
3101;SDS011;1561;42.666;23.392;2023-04-24T08:30:06;8.32;;;7.63;;
3101;SDS011;1561;42.666;23.392;2023-04-24T08:32:39;8.45;;;7.50;;
3101;SDS011;1561;42.666;23.392;2023-04-24T08:35:07;9.73;;;8.63;;
3101;SDS011;1561;42.666;23.392;2023-04-24T08:37:39;9.57;;;8.45;;
3101;SDS011;1561;42.666;23.392;2023-04-24T08:40:06;10.82;;;8.10;;
3101;SDS011;1561;42.666;23.392;2023-04-24T08:42:37;12.27;;;9.00;;
3101;SDS011;1561;42.666;23.392;2023-04-24T08:45:06;10.50;;;8.38;;
3101;SDS011;1561;42.666;23.392;2023-04-24T08:47:33;8.75;;;7.97;;
3101;SDS011;1561;42.666;23.392;2023-04-24T08:50:02;9.00;;;7.88;;
3101;SDS011;1561;42.666;23.392;2023-04-24T08:52:36;12.30;;;7.82;;
3101;SDS011;1561;42.666;23.392;2023-04-24T08:55:06;9.02;;;8.07;;
3101;SDS011;1561;42.666;23.392;2023-04-24T08:57:32;8.93;;;7.55;;
3101;SDS011;1561;42.666;23.392;2023-04-24T09:00:01;8.48;;;7.50;;
3101;SDS011;1561;42.666;23.392;2023-04-24T09:02:29;8.85;;;7.95;;
3101;SDS011;1561;42.666;23.392;2023-04-24T09:04:57;8.05;;;7.35;;
3101;SDS011;1561;42.666;23.392;2023-04-24T09:07:24;8.68;;;7.97;;
3101;SDS011;1561;42.666;23.392;2023-04-24T09:09:53;7.90;;;6.90;;
3101;SDS011;1561;42.666;23.392;2023-04-24T09:12:23;9.23;;;8.27;;
3101;SDS011;1561;42.666;23.392;2023-04-24T09:14:50;8.60;;;7.80;;
3101;SDS011;1561;42.666;23.392;2023-04-24T09:17:20;8.07;;;7.32;;
3101;SDS011;1561;42.666;23.392;2023-04-24T09:19:50;8.35;;;7.55;;
3101;SDS011;1561;42.666;23.392;2023-04-24T09:22:18;7.95;;;7.25;;
3101;SDS011;1561;42.666;23.392;2023-04-24T09:24:45;8.32;;;7.53;;
3101;SDS011;1561;42.666;23.392;2023-04-24T09:27:13;9.38;;;7.50;;
3101;SDS011;1561;42.666;23.392;2023-04-24T09:29:55;8.95;;;8.05;;
3101;SDS011;1561;42.666;23.392;2023-04-24T09:32:23;8.77;;;7.80;;
3101;SDS011;1561;42.666;23.392;2023-04-24T09:35:04;23.25;;;18.08;;
3101;SDS011;1561;42.666;23.392;2023-04-24T09:37:34;20.00;;;14.07;;
3101;SDS011;1561;42.666;23.392;2023-04-24T09:40:11;8.43;;;7.68;;
3101;SDS011;1561;42.666;23.392;2023-04-24T09:42:43;10.63;;;8.13;;
3101;SDS011;1561;42.666;23.392;2023-04-24T09:45:18;7.28;;;6.68;;
3101;SDS011;1561;42.666;23.392;2023-04-24T09:47:50;9.65;;;7.55;;
3101;SDS011;1561;42.666;23.392;2023-04-24T09:50:17;8.32;;;7.63;;
3101;SDS011;1561;42.666;23.392;2023-04-24T09:52:56;9.85;;;7.53;;
3101;SDS011;1561;42.666;23.392;2023-04-24T09:55:24;10.75;;;8.65;;
3101;SDS011;1561;42.666;23.392;2023-04-24T09:57:52;8.40;;;7.68;;
3101;SDS011;1561;42.666;23.392;2023-04-24T10:00:23;7.97;;;7.22;;
3101;SDS011;1561;42.666;23.392;2023-04-24T10:02:51;7.63;;;6.93;;
3101;SDS011;1561;42.666;23.392;2023-04-24T10:05:23;7.95;;;7.22;;
3101;SDS011;1561;42.666;23.392;2023-04-24T10:07:55;11.20;;;7.20;;
3101;SDS011;1561;42.666;23.392;2023-04-24T10:10:24;7.85;;;7.20;;
3101;SDS011;1561;42.666;23.392;2023-04-24T10:12:51;8.23;;;7.22;;
3101;SDS011;1561;42.666;23.392;2023-04-24T10:15:23;7.75;;;6.95;;
3101;SDS011;1561;42.666;23.392;2023-04-24T10:17:54;8.98;;;7.95;;
3101;SDS011;1561;42.666;23.392;2023-04-24T10:20:21;7.90;;;7.13;;
3101;SDS011;1561;42.666;23.392;2023-04-24T10:22:53;9.70;;;7.82;;
3101;SDS011;1561;42.666;23.392;2023-04-24T10:25:23;28.67;;;19.42;;
3101;SDS011;1561;42.666;23.392;2023-04-24T10:27:50;10.38;;;9.32;;
3101;SDS011;1561;42.666;23.392;2023-04-24T10:30:35;9.68;;;8.05;;
3101;SDS011;1561;42.666;23.392;2023-04-24T10:33:02;8.75;;;7.97;;
3101;SDS011;1561;42.666;23.392;2023-04-24T10:35:32;23.60;;;14.60;;
3101;SDS011;1561;42.666;23.392;2023-04-24T10:38:03;11.35;;;8.40;;
3101;SDS011;1561;42.666;23.392;2023-04-24T10:40:34;21.63;;;17.35;;
3101;SDS011;1561;42.666;23.392;2023-04-24T10:43:02;10.80;;;9.65;;
3101;SDS011;1561;42.666;23.392;2023-04-24T10:45:38;11.48;;;8.00;;
3101;SDS011;1561;42.666;23.392;2023-04-24T10:48:20;8.48;;;7.47;;
3101;SDS011;1561;42.666;23.392;2023-04-24T10:50:54;7.95;;;6.93;;
3101;SDS011;1561;42.666;23.392;2023-04-24T10:53:21;7.32;;;6.72;;
3101;SDS011;1561;42.666;23.392;2023-04-24T10:55:49;7.45;;;6.75;;
3101;SDS011;1561;42.666;23.392;2023-04-24T10:58:21;7.70;;;6.93;;
3101;SDS011;1561;42.666;23.392;2023-04-24T11:00:58;8.80;;;8.00;;
3101;SDS011;1561;42.666;23.392;2023-04-24T11:03:26;7.60;;;6.90;;
3101;SDS011;1561;42.666;23.392;2023-04-24T11:05:59;8.40;;;7.70;;
3101;SDS011;1561;42.666;23.392;2023-04-24T11:08:29;7.95;;;7.25;;
3101;SDS011;1561;42.666;23.392;2023-04-24T11:10:58;8.32;;;7.53;;
3101;SDS011;1561;42.666;23.392;2023-04-24T11:13:27;8.27;;;7.57;;
3101;SDS011;1561;42.666;23.392;2023-04-24T11:16:14;8.27;;;7.53;;
3101;SDS011;1561;42.666;23.392;2023-04-24T11:18:42;9.40;;;8.30;;
3101;SDS011;1561;42.666;23.392;2023-04-24T11:21:17;10.70;;;9.70;;
3101;SDS011;1561;42.666;23.392;2023-04-24T11:23:45;10.98;;;9.15;;
3101;SDS011;1561;42.666;23.392;2023-04-24T11:26:12;7.90;;;7.30;;
3101;SDS011;1561;42.666;23.392;2023-04-24T11:28:47;7.88;;;7.28;;
3101;SDS011;1561;42.666;23.392;2023-04-24T11:34:08;7.63;;;6.93;;
3101;SDS011;1561;42.666;23.392;2023-04-24T11:36:34;8.15;;;6.78;;
3101;SDS011;1561;42.666;23.392;2023-04-24T11:39:01;9.65;;;6.65;;
3101;SDS011;1561;42.666;23.392;2023-04-24T11:41:29;7.57;;;7.07;;
3101;SDS011;1561;42.666;23.392;2023-04-24T11:43:55;7.90;;;7.25;;
3101;SDS011;1561;42.666;23.392;2023-04-24T11:46:26;8.27;;;7.57;;
3101;SDS011;1561;42.666;23.392;2023-04-24T11:48:53;10.30;;;7.57;;
3101;SDS011;1561;42.666;23.392;2023-04-24T11:54:07;12.40;;;7.07;;
3101;SDS011;1561;42.666;23.392;2023-04-24T11:56:34;8.23;;;6.80;;
3101;SDS011;1561;42.666;23.392;2023-04-24T11:59:03;6.57;;;6.07;;
3101;SDS011;1561;42.666;23.392;2023-04-24T12:01:42;7.65;;;6.97;;
3101;SDS011;1561;42.666;23.392;2023-04-24T12:04:08;6.70;;;5.95;;
3101;SDS011;1561;42.666;23.392;2023-04-24T12:06:35;8.85;;;7.88;;
3101;SDS011;1561;42.666;23.392;2023-04-24T12:09:03;10.65;;;9.60;;
3101;SDS011;1561;42.666;23.392;2023-04-24T12:11:34;6.47;;;5.97;;
3101;SDS011;1561;42.666;23.392;2023-04-24T12:16:49;6.75;;;6.15;;
3101;SDS011;1561;42.666;23.392;2023-04-24T12:19:22;16.88;;;12.48;;
3101;SDS011;1561;42.666;23.392;2023-04-24T12:22:02;9.85;;;8.43;;
3101;SDS011;1561;42.666;23.392;2023-04-24T12:24:32;6.43;;;5.88;;
3101;SDS011;1561;42.666;23.392;2023-04-24T12:27:05;9.80;;;6.32;;
3101;SDS011;1561;42.666;23.392;2023-04-24T12:29:52;8.32;;;7.07;;
3101;SDS011;1561;42.666;23.392;2023-04-24T12:32:23;6.88;;;6.30;;
3101;SDS011;1561;42.666;23.392;2023-04-24T12:34:59;6.57;;;5.45;;
3101;SDS011;1561;42.666;23.392;2023-04-24T12:37:34;5.68;;;5.22;;
3101;SDS011;1561;42.666;23.392;2023-04-24T12:40:15;5.68;;;5.18;;
3101;SDS011;1561;42.666;23.392;2023-04-24T12:43:12;6.55;;;5.95;;
3101;SDS011;1561;42.666;23.392;2023-04-24T12:45:59;5.22;;;4.93;;
3101;SDS011;1561;42.666;23.392;2023-04-24T12:48:28;4.63;;;4.32;;
3101;SDS011;1561;42.666;23.392;2023-04-24T12:50:56;4.70;;;4.30;;
3101;SDS011;1561;42.666;23.392;2023-04-24T12:53:28;5.65;;;5.25;;
3101;SDS011;1561;42.666;23.392;2023-04-24T12:55:57;5.35;;;4.85;;
3101;SDS011;1561;42.666;23.392;2023-04-24T12:58:30;6.68;;;6.10;;
3101;SDS011;1561;42.666;23.392;2023-04-24T13:01:03;7.35;;;5.97;;
3101;SDS011;1561;42.666;23.392;2023-04-24T13:03:32;6.22;;;5.72;;
3101;SDS011;1561;42.666;23.392;2023-04-24T13:05:59;6.88;;;6.20;;
3101;SDS011;1561;42.666;23.392;2023-04-24T13:08:29;6.80;;;6.30;;
3101;SDS011;1561;42.666;23.392;2023-04-24T13:11:00;6.75;;;6.10;;
3101;SDS011;1561;42.666;23.392;2023-04-24T13:13:35;8.05;;;7.03;;
3101;SDS011;1561;42.666;23.392;2023-04-24T13:16:02;7.25;;;6.13;;
3101;SDS011;1561;42.666;23.392;2023-04-24T13:18:31;7.28;;;6.63;;
3101;SDS011;1561;42.666;23.392;2023-04-24T13:20:57;6.93;;;6.32;;
3101;SDS011;1561;42.666;23.392;2023-04-24T13:23:24;6.55;;;6.05;;
3101;SDS011;1561;42.666;23.392;2023-04-24T13:25:55;8.43;;;6.22;;
3101;SDS011;1561;42.666;23.392;2023-04-24T13:28:28;10.23;;;9.23;;
3101;SDS011;1561;42.666;23.392;2023-04-24T13:33:52;7.57;;;6.45;;
3101;SDS011;1561;42.666;23.392;2023-04-24T13:36:21;9.57;;;6.82;;
3101;SDS011;1561;42.666;23.392;2023-04-24T13:38:49;7.78;;;7.05;;
3101;SDS011;1561;42.666;23.392;2023-04-24T13:41:21;7.68;;;6.97;;
3101;SDS011;1561;42.666;23.392;2023-04-24T13:43:49;10.07;;;7.07;;
3101;SDS011;1561;42.666;23.392;2023-04-24T13:46:26;11.45;;;6.43;;
3101;SDS011;1561;42.666;23.392;2023-04-24T13:49:07;7.47;;;6.78;;
3101;SDS011;1561;42.666;23.392;2023-04-24T13:51:38;8.13;;;7.50;;
3101;SDS011;1561;42.666;23.392;2023-04-24T13:54:23;7.53;;;6.93;;
3101;SDS011;1561;42.666;23.392;2023-04-24T13:56:52;7.20;;;6.50;;
3101;SDS011;1561;42.666;23.392;2023-04-24T13:59:22;8.40;;;6.38;;
3101;SDS011;1561;42.666;23.392;2023-04-24T14:01:54;7.50;;;6.85;;
3101;SDS011;1561;42.666;23.392;2023-04-24T14:04:27;6.60;;;6.00;;
3101;SDS011;1561;42.666;23.392;2023-04-24T14:06:55;7.68;;;5.45;;
3101;SDS011;1561;42.666;23.392;2023-04-24T14:09:24;7.13;;;6.45;;
3101;SDS011;1561;42.666;23.392;2023-04-24T14:11:55;8.32;;;7.18;;
3101;SDS011;1561;42.666;23.392;2023-04-24T14:14:22;6.40;;;5.75;;
3101;SDS011;1561;42.666;23.392;2023-04-24T14:16:51;6.32;;;5.72;;
3101;SDS011;1561;42.666;23.392;2023-04-24T14:19:18;5.57;;;5.18;;
3101;SDS011;1561;42.666;23.392;2023-04-24T14:21:56;5.50;;;5.18;;
3101;SDS011;1561;42.666;23.392;2023-04-24T14:24:28;5.68;;;4.63;;
3101;SDS011;1561;42.666;23.392;2023-04-24T14:26:55;6.10;;;5.57;;
3101;SDS011;1561;42.666;23.392;2023-04-24T14:29:22;6.50;;;5.97;;
3101;SDS011;1561;42.666;23.392;2023-04-24T14:31:57;7.93;;;7.18;;
3101;SDS011;1561;42.666;23.392;2023-04-24T14:34:31;7.38;;;5.68;;
3101;SDS011;1561;42.666;23.392;2023-04-24T14:37:04;5.55;;;5.15;;
3101;SDS011;1561;42.666;23.392;2023-04-24T14:39:35;6.10;;;5.50;;
3101;SDS011;1561;42.666;23.392;2023-04-24T14:42:02;5.45;;;4.82;;
3101;SDS011;1561;42.666;23.392;2023-04-24T14:44:33;5.35;;;4.85;;
3101;SDS011;1561;42.666;23.392;2023-04-24T14:47:02;7.07;;;5.28;;
3101;SDS011;1561;42.666;23.392;2023-04-24T14:49:29;4.90;;;4.50;;
3101;SDS011;1561;42.666;23.392;2023-04-24T14:52:00;5.80;;;4.95;;
3101;SDS011;1561;42.666;23.392;2023-04-24T14:54:30;5.88;;;5.47;;
3101;SDS011;1561;42.666;23.392;2023-04-24T14:56:56;9.27;;;6.10;;
3101;SDS011;1561;42.666;23.392;2023-04-24T14:59:23;5.63;;;5.13;;
3101;SDS011;1561;42.666;23.392;2023-04-24T15:01:50;11.15;;;8.68;;
3101;SDS011;1561;42.666;23.392;2023-04-24T15:04:17;7.30;;;6.00;;
3101;SDS011;1561;42.666;23.392;2023-04-24T15:06:47;6.32;;;5.78;;
3101;SDS011;1561;42.666;23.392;2023-04-24T15:09:15;8.10;;;7.45;;
3101;SDS011;1561;42.666;23.392;2023-04-24T15:11:44;10.30;;;9.60;;
3101;SDS011;1561;42.666;23.392;2023-04-24T15:14:11;12.43;;;11.13;;
3101;SDS011;1561;42.666;23.392;2023-04-24T15:16:38;11.10;;;9.00;;
3101;SDS011;1561;42.666;23.392;2023-04-24T15:19:04;7.97;;;7.27;;
3101;SDS011;1561;42.666;23.392;2023-04-24T15:21:32;9.33;;;8.53;;
3101;SDS011;1561;42.666;23.392;2023-04-24T15:24:00;7.70;;;7.10;;
3101;SDS011;1561;42.666;23.392;2023-04-24T15:26:30;8.00;;;7.30;;
3101;SDS011;1561;42.666;23.392;2023-04-24T15:29:00;10.30;;;7.10;;
3101;SDS011;1561;42.666;23.392;2023-04-24T15:31:31;8.77;;;7.40;;
3101;SDS011;1561;42.666;23.392;2023-04-24T15:33:57;8.07;;;7.30;;
3101;SDS011;1561;42.666;23.392;2023-04-24T15:36:24;8.27;;;7.43;;
3101;SDS011;1561;42.666;23.392;2023-04-24T15:38:51;7.10;;;6.50;;
3101;SDS011;1561;42.666;23.392;2023-04-24T15:41:20;9.40;;;7.47;;
3101;SDS011;1561;42.666;23.392;2023-04-24T15:43:56;9.07;;;7.77;;
3101;SDS011;1561;42.666;23.392;2023-04-24T15:46:24;9.20;;;8.40;;
3101;SDS011;1561;42.666;23.392;2023-04-24T15:48:53;8.20;;;7.50;;
3101;SDS011;1561;42.666;23.392;2023-04-24T15:51:22;13.30;;;8.77;;
3101;SDS011;1561;42.666;23.392;2023-04-24T15:53:50;9.73;;;8.73;;
3101;SDS011;1561;42.666;23.392;2023-04-24T15:56:18;13.10;;;9.90;;
3101;SDS011;1561;42.666;23.392;2023-04-24T15:58:57;9.97;;;9.07;;
3101;SDS011;1561;42.666;23.392;2023-04-24T16:01:32;11.10;;;8.83;;
3101;SDS011;1561;42.666;23.392;2023-04-24T16:04:02;10.17;;;9.17;;
3101;SDS011;1561;42.666;23.392;2023-04-24T16:06:30;10.60;;;9.60;;
3101;SDS011;1561;42.666;23.392;2023-04-24T16:08:57;9.37;;;8.47;;
3101;SDS011;1561;42.666;23.392;2023-04-24T16:11:23;12.17;;;9.97;;
3101;SDS011;1561;42.666;23.392;2023-04-24T16:13:50;12.20;;;9.60;;
3101;SDS011;1561;42.666;23.392;2023-04-24T16:16:20;11.60;;;10.40;;
3101;SDS011;1561;42.666;23.392;2023-04-24T16:18:49;16.83;;;10.83;;
3101;SDS011;1561;42.666;23.392;2023-04-24T16:21:19;11.83;;;10.73;;
3101;SDS011;1561;42.666;23.392;2023-04-24T16:23:46;14.80;;;13.20;;
3101;SDS011;1561;42.666;23.392;2023-04-24T16:26:13;13.97;;;10.50;;
3101;SDS011;1561;42.666;23.392;2023-04-24T16:28:42;14.10;;;11.90;;
3101;SDS011;1561;42.666;23.392;2023-04-24T16:31:09;12.13;;;10.80;;
3101;SDS011;1561;42.666;23.392;2023-04-24T16:33:40;11.53;;;8.77;;
3101;SDS011;1561;42.666;23.392;2023-04-24T16:36:11;9.47;;;7.30;;
3101;SDS011;1561;42.666;23.392;2023-04-24T16:38:44;9.37;;;8.30;;
3101;SDS011;1561;42.666;23.392;2023-04-24T16:41:17;10.57;;;9.57;;
3101;SDS011;1561;42.666;23.392;2023-04-24T16:43:50;11.43;;;8.20;;
3101;SDS011;1561;42.666;23.392;2023-04-24T16:46:17;15.90;;;12.23;;
3101;SDS011;1561;42.666;23.392;2023-04-24T16:48:46;12.83;;;11.20;;
3101;SDS011;1561;42.666;23.392;2023-04-24T16:51:24;13.90;;;12.50;;
3101;SDS011;1561;42.666;23.392;2023-04-24T16:54:07;13.40;;;12.10;;
3101;SDS011;1561;42.666;23.392;2023-04-24T16:56:35;14.97;;;11.30;;
3101;SDS011;1561;42.666;23.392;2023-04-24T16:59:10;13.60;;;11.73;;
3101;SDS011;1561;42.666;23.392;2023-04-24T17:01:39;13.40;;;12.00;;
3101;SDS011;1561;42.666;23.392;2023-04-24T17:04:10;12.60;;;9.80;;
3101;SDS011;1561;42.666;23.392;2023-04-24T17:06:45;10.97;;;9.87;;
3101;SDS011;1561;42.666;23.392;2023-04-24T17:09:12;13.60;;;12.20;;
3101;SDS011;1561;42.666;23.392;2023-04-24T17:11:42;20.77;;;16.50;;
3101;SDS011;1561;42.666;23.392;2023-04-24T17:14:09;16.73;;;13.47;;
3101;SDS011;1561;42.666;23.392;2023-04-24T17:16:36;15.70;;;13.00;;
3101;SDS011;1561;42.666;23.392;2023-04-24T17:19:04;15.17;;;12.33;;
3101;SDS011;1561;42.666;23.392;2023-04-24T17:21:37;13.10;;;11.60;;
3101;SDS011;1561;42.666;23.392;2023-04-24T17:24:10;15.70;;;13.37;;
3101;SDS011;1561;42.666;23.392;2023-04-24T17:26:42;14.00;;;12.40;;
3101;SDS011;1561;42.666;23.392;2023-04-24T17:29:22;16.53;;;14.10;;
3101;SDS011;1561;42.666;23.392;2023-04-24T17:32:03;13.50;;;10.87;;
3101;SDS011;1561;42.666;23.392;2023-04-24T17:34:32;17.40;;;12.70;;